GMTN/TTU METAR and TAF weather

Enter ICAO airport designator
Station Type Date Time Source
GMTN METAR 2019/02/23 23:00 UTC NOAA

GMTN 232300Z AUTO 20010KT /// 13/06 Q1025


Station Type Date Time Source
GMTN Decoded METAR 2019/02/23 23:00 UTC NOAA

Tetuan / Sania Ramel, Morocco (GMTN) 35-35N 005-20W 10M
Feb 23, 2019 - 06:00 PM EST / 2019.02.23 2300 UTC
Wind: from the SSW (200 degrees) at 12 MPH (10 KT):0
Temperature: 55 F (13 C)
Dew Point: 42 F (6 C)
Relative Humidity: 62%
Pressure (altimeter): 30.27 in. Hg (1025 hPa)
ob: GMTN 232300Z AUTO 20010KT /// 13/06 Q1025
cycle: 23

Station Type Date Time Source
GMTN TAF UTC NOAA

Error!


Example: see airport list